sensor_id;sensor_type;location;lat;lon;timestamp;temperature;humidity
13354;DHT22;6746;50.892;4.064;2023-08-06T00:01:28;15.10;99.90
13354;DHT22;6746;50.892;4.064;2023-08-06T00:04:15;15.20;99.90
13354;DHT22;6746;50.892;4.064;2023-08-06T00:06:59;15.20;99.90
13354;DHT22;6746;50.892;4.064;2023-08-06T00:09:37;15.20;99.90
13354;DHT22;6746;50.892;4.064;2023-08-06T00:12:25;15.20;99.90
13354;DHT22;6746;50.892;4.064;2023-08-06T00:15:13;15.20;99.90
13354;DHT22;6746;50.892;4.064;2023-08-06T00:18:02;15.30;99.90
13354;DHT22;6746;50.892;4.064;2023-08-06T00:20:50;15.20;99.90
13354;DHT22;6746;50.892;4.064;2023-08-06T00:23:38;15.20;99.90
13354;DHT22;6746;50.892;4.064;2023-08-06T00:26:26;15.20;99.90
13354;DHT22;6746;50.892;4.064;2023-08-06T00:29:10;15.20;99.90
13354;DHT22;6746;50.892;4.064;2023-08-06T00:31:48;15.30;99.90
13354;DHT22;6746;50.892;4.064;2023-08-06T00:34:36;15.30;99.90
13354;DHT22;6746;50.892;4.064;2023-08-06T00:37:24;15.20;99.90
13354;DHT22;6746;50.892;4.064;2023-08-06T00:40:08;15.20;99.90
13354;DHT22;6746;50.892;4.064;2023-08-06T00:42:47;15.20;99.90
13354;DHT22;6746;50.892;4.064;2023-08-06T00:45:36;15.20;99.90
13354;DHT22;6746;50.892;4.064;2023-08-06T00:48:23;15.20;99.90
13354;DHT22;6746;50.892;4.064;2023-08-06T00:51:07;15.20;99.90
13354;DHT22;6746;50.892;4.064;2023-08-06T00:53:45;15.10;99.90
13354;DHT22;6746;50.892;4.064;2023-08-06T00:56:34;15.10;99.90
13354;DHT22;6746;50.892;4.064;2023-08-06T00:59:21;15.10;99.90
13354;DHT22;6746;50.892;4.064;2023-08-06T01:02:09;15.10;99.90
13354;DHT22;6746;50.892;4.064;2023-08-06T01:04:48;15.20;99.90
13354;DHT22;6746;50.892;4.064;2023-08-06T01:07:37;15.20;99.90
13354;DHT22;6746;50.892;4.064;2023-08-06T01:13:48;15.20;99.90
13354;DHT22;6746;50.892;4.064;2023-08-06T01:16:35;15.20;99.90
13354;DHT22;6746;50.892;4.064;2023-08-06T01:19:24;15.20;99.90
13354;DHT22;6746;50.892;4.064;2023-08-06T01:22:12;15.20;99.90
13354;DHT22;6746;50.892;4.064;2023-08-06T01:25:00;15.10;99.90
13354;DHT22;6746;50.892;4.064;2023-08-06T01:27:49;15.10;99.90
13354;DHT22;6746;50.892;4.064;2023-08-06T01:30:37;15.10;99.90
13354;DHT22;6746;50.892;4.064;2023-08-06T01:33:21;15.10;99.90
13354;DHT22;6746;50.892;4.064;2023-08-06T01:35:59;15.10;99.90
13354;DHT22;6746;50.892;4.064;2023-08-06T01:38:47;15.10;99.90
13354;DHT22;6746;50.892;4.064;2023-08-06T01:41:33;15.10;99.90
13354;DHT22;6746;50.892;4.064;2023-08-06T01:44:12;15.10;99.90
13354;DHT22;6746;50.892;4.064;2023-08-06T01:47:00;15.00;99.90
13354;DHT22;6746;50.892;4.064;2023-08-06T01:49:38;15.10;99.90
13354;DHT22;6746;50.892;4.064;2023-08-06T01:52:16;15.00;99.90
13354;DHT22;6746;50.892;4.064;2023-08-06T01:54:54;15.00;99.90
13354;DHT22;6746;50.892;4.064;2023-08-06T01:57:33;15.00;99.90
13354;DHT22;6746;50.892;4.064;2023-08-06T02:00:21;15.00;99.90
13354;DHT22;6746;50.892;4.064;2023-08-06T02:02:59;15.00;99.90
13354;DHT22;6746;50.892;4.064;2023-08-06T02:05:37;14.90;99.90
13354;DHT22;6746;50.892;4.064;2023-08-06T02:08:26;14.90;99.90
13354;DHT22;6746;50.892;4.064;2023-08-06T02:11:13;14.90;99.90
13354;DHT22;6746;50.892;4.064;2023-08-06T02:14:01;14.90;99.90
13354;DHT22;6746;50.892;4.064;2023-08-06T02:16:43;14.90;99.90
13354;DHT22;6746;50.892;4.064;2023-08-06T02:19:21;14.80;99.90
13354;DHT22;6746;50.892;4.064;2023-08-06T02:21:59;14.80;99.90
13354;DHT22;6746;50.892;4.064;2023-08-06T02:24:37;14.90;99.90
13354;DHT22;6746;50.892;4.064;2023-08-06T02:27:20;14.80;99.90
13354;DHT22;6746;50.892;4.064;2023-08-06T02:29:59;14.90;99.90
13354;DHT22;6746;50.892;4.064;2023-08-06T02:32:47;14.90;99.90
13354;DHT22;6746;50.892;4.064;2023-08-06T02:35:25;14.90;99.90
13354;DHT22;6746;50.892;4.064;2023-08-06T02:38:04;15.00;99.90
13354;DHT22;6746;50.892;4.064;2023-08-06T02:40:45;15.00;99.90
13354;DHT22;6746;50.892;4.064;2023-08-06T02:43:23;15.10;99.90
13354;DHT22;6746;50.892;4.064;2023-08-06T02:46:04;15.10;99.90
13354;DHT22;6746;50.892;4.064;2023-08-06T02:48:42;15.10;99.90
13354;DHT22;6746;50.892;4.064;2023-08-06T02:51:30;15.10;99.90
13354;DHT22;6746;50.892;4.064;2023-08-06T02:54:18;15.10;99.90
13354;DHT22;6746;50.892;4.064;2023-08-06T02:57:06;15.20;99.90
13354;DHT22;6746;50.892;4.064;2023-08-06T02:59:54;15.20;99.90
13354;DHT22;6746;50.892;4.064;2023-08-06T03:02:43;15.10;99.90
13354;DHT22;6746;50.892;4.064;2023-08-06T03:05:31;15.10;99.90
13354;DHT22;6746;50.892;4.064;2023-08-06T03:08:09;15.10;99.90
13354;DHT22;6746;50.892;4.064;2023-08-06T03:10:48;15.10;99.90
13354;DHT22;6746;50.892;4.064;2023-08-06T03:13:29;15.00;99.90
13354;DHT22;6746;50.892;4.064;2023-08-06T03:16:07;14.90;99.90
13354;DHT22;6746;50.892;4.064;2023-08-06T03:18:53;14.90;99.90
13354;DHT22;6746;50.892;4.064;2023-08-06T03:21:32;14.90;99.90
13354;DHT22;6746;50.892;4.064;2023-08-06T03:24:13;14.80;99.90
13354;DHT22;6746;50.892;4.064;2023-08-06T03:26:51;14.80;99.90
13354;DHT22;6746;50.892;4.064;2023-08-06T03:29:32;14.70;99.90
13354;DHT22;6746;50.892;4.064;2023-08-06T03:32:10;14.60;99.90
13354;DHT22;6746;50.892;4.064;2023-08-06T03:34:56;14.50;99.90
13354;DHT22;6746;50.892;4.064;2023-08-06T03:37:34;14.50;99.90
13354;DHT22;6746;50.892;4.064;2023-08-06T03:40:20;14.40;99.90
13354;DHT22;6746;50.892;4.064;2023-08-06T03:42:58;14.40;99.90
13354;DHT22;6746;50.892;4.064;2023-08-06T03:45:36;14.40;99.90
13354;DHT22;6746;50.892;4.064;2023-08-06T03:48:14;14.40;99.90
13354;DHT22;6746;50.892;4.064;2023-08-06T03:50:52;14.30;99.90
13354;DHT22;6746;50.892;4.064;2023-08-06T03:53:31;14.40;99.90
13354;DHT22;6746;50.892;4.064;2023-08-06T03:56:11;14.40;99.90
13354;DHT22;6746;50.892;4.064;2023-08-06T03:58:49;14.40;99.90
13354;DHT22;6746;50.892;4.064;2023-08-06T04:01:35;14.40;99.90
13354;DHT22;6746;50.892;4.064;2023-08-06T04:04:14;14.40;99.90
13354;DHT22;6746;50.892;4.064;2023-08-06T04:07:02;14.30;99.90
13354;DHT22;6746;50.892;4.064;2023-08-06T04:09:58;14.30;99.90
13354;DHT22;6746;50.892;4.064;2023-08-06T04:12:33;14.20;99.90
13354;DHT22;6746;50.892;4.064;2023-08-06T04:15:11;14.20;99.90
13354;DHT22;6746;50.892;4.064;2023-08-06T04:17:49;14.10;99.90
13354;DHT22;6746;50.892;4.064;2023-08-06T04:20:27;14.10;99.90
13354;DHT22;6746;50.892;4.064;2023-08-06T04:23:08;14.10;99.90
13354;DHT22;6746;50.892;4.064;2023-08-06T04:25:46;14.00;99.90
13354;DHT22;6746;50.892;4.064;2023-08-06T04:28:27;14.10;99.90
13354;DHT22;6746;50.892;4.064;2023-08-06T04:31:05;14.10;99.90
13354;DHT22;6746;50.892;4.064;2023-08-06T04:33:43;14.10;99.90
13354;DHT22;6746;50.892;4.064;2023-08-06T04:36:21;14.10;99.90
13354;DHT22;6746;50.892;4.064;2023-08-06T04:38:59;14.10;99.90
13354;DHT22;6746;50.892;4.064;2023-08-06T04:41:37;14.10;99.90
13354;DHT22;6746;50.892;4.064;2023-08-06T04:44:15;14.20;99.90
13354;DHT22;6746;50.892;4.064;2023-08-06T04:46:53;14.20;99.90
13354;DHT22;6746;50.892;4.064;2023-08-06T04:49:34;14.20;99.90
13354;DHT22;6746;50.892;4.064;2023-08-06T04:52:12;14.20;99.90
13354;DHT22;6746;50.892;4.064;2023-08-06T04:54:50;14.20;99.90
13354;DHT22;6746;50.892;4.064;2023-08-06T04:57:28;14.20;99.90
13354;DHT22;6746;50.892;4.064;2023-08-06T05:00:06;14.30;99.90
13354;DHT22;6746;50.892;4.064;2023-08-06T05:02:38;14.30;99.90
13354;DHT22;6746;50.892;4.064;2023-08-06T05:05:21;14.30;99.90
13354;DHT22;6746;50.892;4.064;2023-08-06T05:07:50;14.30;99.90
13354;DHT22;6746;50.892;4.064;2023-08-06T05:10:28;14.30;99.90
13354;DHT22;6746;50.892;4.064;2023-08-06T05:13:06;14.30;99.90
13354;DHT22;6746;50.892;4.064;2023-08-06T05:15:37;14.30;99.90
13354;DHT22;6746;50.892;4.064;2023-08-06T05:18:06;14.30;99.90
13354;DHT22;6746;50.892;4.064;2023-08-06T05:20:44;14.20;99.90
13354;DHT22;6746;50.892;4.064;2023-08-06T05:23:29;14.20;99.90
13354;DHT22;6746;50.892;4.064;2023-08-06T05:26:07;14.10;99.90
13354;DHT22;6746;50.892;4.064;2023-08-06T05:28:45;14.10;99.90
13354;DHT22;6746;50.892;4.064;2023-08-06T05:31:23;14.10;99.90
13354;DHT22;6746;50.892;4.064;2023-08-06T05:34:11;14.10;99.90
13354;DHT22;6746;50.892;4.064;2023-08-06T05:36:49;14.10;99.90
13354;DHT22;6746;50.892;4.064;2023-08-06T05:39:28;14.10;99.90
13354;DHT22;6746;50.892;4.064;2023-08-06T05:42:04;14.10;99.90
13354;DHT22;6746;50.892;4.064;2023-08-06T05:44:33;14.10;99.90
13354;DHT22;6746;50.892;4.064;2023-08-06T05:47:11;14.10;99.90
13354;DHT22;6746;50.892;4.064;2023-08-06T05:49:49;14.10;99.90
13354;DHT22;6746;50.892;4.064;2023-08-06T05:52:27;14.10;99.90
13354;DHT22;6746;50.892;4.064;2023-08-06T05:54:55;14.10;99.90
13354;DHT22;6746;50.892;4.064;2023-08-06T05:57:24;14.20;99.90
13354;DHT22;6746;50.892;4.064;2023-08-06T06:00:02;14.20;99.90
13354;DHT22;6746;50.892;4.064;2023-08-06T06:02:50;14.10;99.90
13354;DHT22;6746;50.892;4.064;2023-08-06T06:05:38;14.10;99.90
13354;DHT22;6746;50.892;4.064;2023-08-06T06:08:20;14.20;99.90
13354;DHT22;6746;50.892;4.064;2023-08-06T06:10:59;14.20;99.90
13354;DHT22;6746;50.892;4.064;2023-08-06T06:13:37;14.20;99.90
13354;DHT22;6746;50.892;4.064;2023-08-06T06:16:25;14.30;99.90
13354;DHT22;6746;50.892;4.064;2023-08-06T06:19:13;14.30;99.90
13354;DHT22;6746;50.892;4.064;2023-08-06T06:21:51;14.30;99.90
13354;DHT22;6746;50.892;4.064;2023-08-06T06:24:30;14.30;99.90
13354;DHT22;6746;50.892;4.064;2023-08-06T06:27:01;14.40;99.90
13354;DHT22;6746;50.892;4.064;2023-08-06T06:29:29;14.40;99.90
13354;DHT22;6746;50.892;4.064;2023-08-06T06:32:01;14.30;99.90
13354;DHT22;6746;50.892;4.064;2023-08-06T06:34:30;14.40;99.90
13354;DHT22;6746;50.892;4.064;2023-08-06T06:37:09;14.30;99.90
13354;DHT22;6746;50.892;4.064;2023-08-06T06:39:38;14.30;99.90
13354;DHT22;6746;50.892;4.064;2023-08-06T06:42:06;14.20;99.90
13354;DHT22;6746;50.892;4.064;2023-08-06T06:44:43;14.10;99.90
13354;DHT22;6746;50.892;4.064;2023-08-06T06:47:12;14.20;99.90
13354;DHT22;6746;50.892;4.064;2023-08-06T06:49:50;14.30;99.90
13354;DHT22;6746;50.892;4.064;2023-08-06T06:52:30;14.30;99.90
13354;DHT22;6746;50.892;4.064;2023-08-06T06:55:09;14.30;99.90
13354;DHT22;6746;50.892;4.064;2023-08-06T06:57:46;14.30;99.90
13354;DHT22;6746;50.892;4.064;2023-08-06T07:00:14;14.30;99.90
13354;DHT22;6746;50.892;4.064;2023-08-06T07:02:53;14.30;99.90
13354;DHT22;6746;50.892;4.064;2023-08-06T07:05:31;14.30;99.90
13354;DHT22;6746;50.892;4.064;2023-08-06T07:08:09;14.30;99.90
13354;DHT22;6746;50.892;4.064;2023-08-06T07:11:00;14.20;99.90
13354;DHT22;6746;50.892;4.064;2023-08-06T07:13:45;14.10;99.90
13354;DHT22;6746;50.892;4.064;2023-08-06T07:16:14;14.10;99.90
13354;DHT22;6746;50.892;4.064;2023-08-06T07:18:42;14.10;99.90
13354;DHT22;6746;50.892;4.064;2023-08-06T07:21:11;14.20;99.90
13354;DHT22;6746;50.892;4.064;2023-08-06T07:23:42;14.30;99.90
13354;DHT22;6746;50.892;4.064;2023-08-06T07:26:13;14.40;99.90
13354;DHT22;6746;50.892;4.064;2023-08-06T07:28:44;14.50;99.90
13354;DHT22;6746;50.892;4.064;2023-08-06T07:31:14;14.60;99.90
13354;DHT22;6746;50.892;4.064;2023-08-06T07:33:43;14.60;99.90
13354;DHT22;6746;50.892;4.064;2023-08-06T07:36:13;14.70;99.90
13354;DHT22;6746;50.892;4.064;2023-08-06T07:38:44;14.70;99.90
13354;DHT22;6746;50.892;4.064;2023-08-06T07:41:16;14.80;99.90
13354;DHT22;6746;50.892;4.064;2023-08-06T07:43:53;14.90;99.90
13354;DHT22;6746;50.892;4.064;2023-08-06T07:46:22;14.90;99.90
13354;DHT22;6746;50.892;4.064;2023-08-06T07:48:50;15.00;99.90
13354;DHT22;6746;50.892;4.064;2023-08-06T07:51:19;15.30;99.90
13354;DHT22;6746;50.892;4.064;2023-08-06T07:53:48;15.40;99.90
13354;DHT22;6746;50.892;4.064;2023-08-06T07:56:17;15.40;99.90
13354;DHT22;6746;50.892;4.064;2023-08-06T07:58:46;15.10;99.90
13354;DHT22;6746;50.892;4.064;2023-08-06T08:01:15;15.00;99.90
13354;DHT22;6746;50.892;4.064;2023-08-06T08:03:54;14.90;99.90
13354;DHT22;6746;50.892;4.064;2023-08-06T08:06:35;14.70;99.90
13354;DHT22;6746;50.892;4.064;2023-08-06T08:09:13;14.70;99.90
13354;DHT22;6746;50.892;4.064;2023-08-06T08:11:51;14.70;99.90
13354;DHT22;6746;50.892;4.064;2023-08-06T08:14:39;14.70;99.90
13354;DHT22;6746;50.892;4.064;2023-08-06T08:17:10;14.70;99.90
13354;DHT22;6746;50.892;4.064;2023-08-06T08:19:40;14.70;99.90
13354;DHT22;6746;50.892;4.064;2023-08-06T08:22:18;14.70;99.90
13354;DHT22;6746;50.892;4.064;2023-08-06T08:24:57;14.90;99.90
13354;DHT22;6746;50.892;4.064;2023-08-06T08:27:35;14.90;99.90
13354;DHT22;6746;50.892;4.064;2023-08-06T08:30:13;15.00;99.90
13354;DHT22;6746;50.892;4.064;2023-08-06T08:32:54;15.00;99.90
13354;DHT22;6746;50.892;4.064;2023-08-06T08:35:30;15.00;99.90
13354;DHT22;6746;50.892;4.064;2023-08-06T08:38:01;14.90;99.90
13354;DHT22;6746;50.892;4.064;2023-08-06T08:40:31;14.80;99.90
13354;DHT22;6746;50.892;4.064;2023-08-06T08:43:06;14.70;99.90
13354;DHT22;6746;50.892;4.064;2023-08-06T08:45:41;14.60;99.90
13354;DHT22;6746;50.892;4.064;2023-08-06T08:48:19;14.50;99.90
13354;DHT22;6746;50.892;4.064;2023-08-06T08:50:53;14.50;99.90
13354;DHT22;6746;50.892;4.064;2023-08-06T08:53:24;14.60;99.90
13354;DHT22;6746;50.892;4.064;2023-08-06T08:55:58;14.60;99.90
13354;DHT22;6746;50.892;4.064;2023-08-06T08:58:27;14.70;99.90
13354;DHT22;6746;50.892;4.064;2023-08-06T09:01:03;14.60;99.90
13354;DHT22;6746;50.892;4.064;2023-08-06T09:03:32;14.60;99.90
13354;DHT22;6746;50.892;4.064;2023-08-06T09:06:03;14.70;99.90
13354;DHT22;6746;50.892;4.064;2023-08-06T09:08:36;14.90;99.90
13354;DHT22;6746;50.892;4.064;2023-08-06T09:11:13;14.70;99.90
13354;DHT22;6746;50.892;4.064;2023-08-06T09:13:45;14.60;99.90
13354;DHT22;6746;50.892;4.064;2023-08-06T09:16:13;14.60;99.90
13354;DHT22;6746;50.892;4.064;2023-08-06T09:18:48;14.60;99.90
13354;DHT22;6746;50.892;4.064;2023-08-06T09:21:19;14.50;99.90
13354;DHT22;6746;50.892;4.064;2023-08-06T09:23:56;14.50;99.90
13354;DHT22;6746;50.892;4.064;2023-08-06T09:26:24;14.40;99.90
13354;DHT22;6746;50.892;4.064;2023-08-06T09:29:04;14.30;99.90
13354;DHT22;6746;50.892;4.064;2023-08-06T09:31:45;14.30;99.90
13354;DHT22;6746;50.892;4.064;2023-08-06T09:34:22;14.50;99.90
13354;DHT22;6746;50.892;4.064;2023-08-06T09:36:53;14.50;99.90
13354;DHT22;6746;50.892;4.064;2023-08-06T09:39:26;14.60;99.90
13354;DHT22;6746;50.892;4.064;2023-08-06T09:42:06;14.60;99.90
13354;DHT22;6746;50.892;4.064;2023-08-06T09:44:35;14.70;99.90
13354;DHT22;6746;50.892;4.064;2023-08-06T09:47:04;14.80;99.90
13354;DHT22;6746;50.892;4.064;2023-08-06T09:49:41;14.80;99.90
13354;DHT22;6746;50.892;4.064;2023-08-06T09:52:10;14.80;99.90
13354;DHT22;6746;50.892;4.064;2023-08-06T09:54:43;14.90;99.90
13354;DHT22;6746;50.892;4.064;2023-08-06T09:57:12;14.90;99.90
13354;DHT22;6746;50.892;4.064;2023-08-06T09:59:44;15.10;99.90
13354;DHT22;6746;50.892;4.064;2023-08-06T10:02:13;15.00;99.90
13354;DHT22;6746;50.892;4.064;2023-08-06T10:04:44;15.10;99.90
13354;DHT22;6746;50.892;4.064;2023-08-06T10:07:11;15.10;99.90
13354;DHT22;6746;50.892;4.064;2023-08-06T10:09:40;15.20;99.90
13354;DHT22;6746;50.892;4.064;2023-08-06T10:12:09;15.10;99.90
13354;DHT22;6746;50.892;4.064;2023-08-06T10:14:47;15.00;99.90
13354;DHT22;6746;50.892;4.064;2023-08-06T10:17:21;14.90;99.90
13354;DHT22;6746;50.892;4.064;2023-08-06T10:19:50;14.80;99.90
13354;DHT22;6746;50.892;4.064;2023-08-06T10:22:26;14.80;99.90
13354;DHT22;6746;50.892;4.064;2023-08-06T10:24:55;14.90;99.90
13354;DHT22;6746;50.892;4.064;2023-08-06T10:27:33;14.90;99.90
13354;DHT22;6746;50.892;4.064;2023-08-06T10:30:24;14.90;99.90
13354;DHT22;6746;50.892;4.064;2023-08-06T10:33:02;14.90;99.90
13354;DHT22;6746;50.892;4.064;2023-08-06T10:35:31;14.90;99.90
13354;DHT22;6746;50.892;4.064;2023-08-06T10:38:11;15.00;99.90
13354;DHT22;6746;50.892;4.064;2023-08-06T10:43:26;15.10;99.90
13354;DHT22;6746;50.892;4.064;2023-08-06T10:46:10;14.90;99.90
13354;DHT22;6746;50.892;4.064;2023-08-06T10:48:48;15.00;99.90
13354;DHT22;6746;50.892;4.064;2023-08-06T10:51:16;15.00;99.90
13354;DHT22;6746;50.892;4.064;2023-08-06T10:53:46;15.00;99.90
13354;DHT22;6746;50.892;4.064;2023-08-06T10:56:17;15.00;99.90
13354;DHT22;6746;50.892;4.064;2023-08-06T10:58:53;14.90;99.90
13354;DHT22;6746;50.892;4.064;2023-08-06T11:01:21;15.00;99.90
13354;DHT22;6746;50.892;4.064;2023-08-06T11:03:49;15.10;99.90
13354;DHT22;6746;50.892;4.064;2023-08-06T11:06:26;15.20;99.90
13354;DHT22;6746;50.892;4.064;2023-08-06T11:08:55;15.30;99.90
13354;DHT22;6746;50.892;4.064;2023-08-06T11:11:33;15.40;99.90
13354;DHT22;6746;50.892;4.064;2023-08-06T11:14:14;15.40;99.90
13354;DHT22;6746;50.892;4.064;2023-08-06T11:16:49;15.50;99.90
13354;DHT22;6746;50.892;4.064;2023-08-06T11:19:21;15.50;99.90
13354;DHT22;6746;50.892;4.064;2023-08-06T11:21:51;15.50;99.90
13354;DHT22;6746;50.892;4.064;2023-08-06T11:24:28;15.40;99.90
13354;DHT22;6746;50.892;4.064;2023-08-06T11:26:57;15.50;99.90
13354;DHT22;6746;50.892;4.064;2023-08-06T11:29:36;15.60;99.90
13354;DHT22;6746;50.892;4.064;2023-08-06T11:32:13;15.50;99.90
13354;DHT22;6746;50.892;4.064;2023-08-06T11:34:52;15.50;99.90
13354;DHT22;6746;50.892;4.064;2023-08-06T11:37:31;15.30;99.90
13354;DHT22;6746;50.892;4.064;2023-08-06T11:40:05;15.20;99.90
13354;DHT22;6746;50.892;4.064;2023-08-06T11:42:41;15.10;99.90
13354;DHT22;6746;50.892;4.064;2023-08-06T11:45:22;15.00;99.90
13354;DHT22;6746;50.892;4.064;2023-08-06T11:47:58;15.00;99.90
13354;DHT22;6746;50.892;4.064;2023-08-06T11:50:27;15.00;99.90
13354;DHT22;6746;50.892;4.064;2023-08-06T11:52:59;15.00;99.90
13354;DHT22;6746;50.892;4.064;2023-08-06T11:55:27;15.20;99.90
13354;DHT22;6746;50.892;4.064;2023-08-06T11:58:05;15.30;99.90
13354;DHT22;6746;50.892;4.064;2023-08-06T12:00:44;15.30;99.90
13354;DHT22;6746;50.892;4.064;2023-08-06T12:03:20;15.50;99.90
13354;DHT22;6746;50.892;4.064;2023-08-06T12:05:48;15.60;99.90
13354;DHT22;6746;50.892;4.064;2023-08-06T12:08:19;15.60;99.90
13354;DHT22;6746;50.892;4.064;2023-08-06T12:10:51;15.70;99.90
13354;DHT22;6746;50.892;4.064;2023-08-06T12:13:22;16.00;99.90
13354;DHT22;6746;50.892;4.064;2023-08-06T12:15:54;16.40;99.90
13354;DHT22;6746;50.892;4.064;2023-08-06T12:18:30;16.60;99.90
13354;DHT22;6746;50.892;4.064;2023-08-06T12:21:01;16.60;99.90
13354;DHT22;6746;50.892;4.064;2023-08-06T12:23:30;16.50;99.90
13354;DHT22;6746;50.892;4.064;2023-08-06T12:25:59;16.20;99.90
13354;DHT22;6746;50.892;4.064;2023-08-06T12:28:28;15.90;99.90
13354;DHT22;6746;50.892;4.064;2023-08-06T12:30:59;15.50;99.90
13354;DHT22;6746;50.892;4.064;2023-08-06T12:33:29;15.40;99.90
13354;DHT22;6746;50.892;4.064;2023-08-06T12:35:58;15.50;99.90
13354;DHT22;6746;50.892;4.064;2023-08-06T12:38:27;15.60;99.90
13354;DHT22;6746;50.892;4.064;2023-08-06T12:40:56;15.70;99.90
13354;DHT22;6746;50.892;4.064;2023-08-06T12:43:30;15.80;99.90
13354;DHT22;6746;50.892;4.064;2023-08-06T12:45:59;15.90;99.90
13354;DHT22;6746;50.892;4.064;2023-08-06T12:48:27;16.00;99.90
13354;DHT22;6746;50.892;4.064;2023-08-06T12:50:59;15.90;99.90
13354;DHT22;6746;50.892;4.064;2023-08-06T12:53:31;15.90;99.90
13354;DHT22;6746;50.892;4.064;2023-08-06T12:56:00;15.90;99.90
13354;DHT22;6746;50.892;4.064;2023-08-06T12:58:39;16.00;99.90
13354;DHT22;6746;50.892;4.064;2023-08-06T13:01:17;16.20;99.90
13354;DHT22;6746;50.892;4.064;2023-08-06T13:03:50;16.50;99.90
13354;DHT22;6746;50.892;4.064;2023-08-06T13:06:29;16.60;99.90
13354;DHT22;6746;50.892;4.064;2023-08-06T13:09:09;16.70;99.90
13354;DHT22;6746;50.892;4.064;2023-08-06T13:11:45;16.80;99.90
13354;DHT22;6746;50.892;4.064;2023-08-06T13:14:16;17.10;99.90
13354;DHT22;6746;50.892;4.064;2023-08-06T13:16:53;17.00;99.90
13354;DHT22;6746;50.892;4.064;2023-08-06T13:19:21;16.80;99.90
13354;DHT22;6746;50.892;4.064;2023-08-06T13:22:02;16.50;99.90
13354;DHT22;6746;50.892;4.064;2023-08-06T13:24:31;16.30;99.90
13354;DHT22;6746;50.892;4.064;2023-08-06T13:27:09;16.20;99.90
13354;DHT22;6746;50.892;4.064;2023-08-06T13:29:45;16.20;99.90
13354;DHT22;6746;50.892;4.064;2023-08-06T13:32:16;16.20;99.90
13354;DHT22;6746;50.892;4.064;2023-08-06T13:34:53;16.10;99.90
13354;DHT22;6746;50.892;4.064;2023-08-06T13:37:22;16.00;99.90
13354;DHT22;6746;50.892;4.064;2023-08-06T13:39:51;16.00;99.90
13354;DHT22;6746;50.892;4.064;2023-08-06T13:42:20;16.00;99.90
13354;DHT22;6746;50.892;4.064;2023-08-06T13:44:49;15.90;99.90
13354;DHT22;6746;50.892;4.064;2023-08-06T13:47:18;15.80;99.90
13354;DHT22;6746;50.892;4.064;2023-08-06T13:49:52;15.80;99.90
13354;DHT22;6746;50.892;4.064;2023-08-06T13:52:21;15.70;99.90
13354;DHT22;6746;50.892;4.064;2023-08-06T13:54:59;15.60;99.90
13354;DHT22;6746;50.892;4.064;2023-08-06T13:57:31;15.60;99.90
13354;DHT22;6746;50.892;4.064;2023-08-06T13:59:59;15.50;99.90
13354;DHT22;6746;50.892;4.064;2023-08-06T14:02:36;15.70;99.90
13354;DHT22;6746;50.892;4.064;2023-08-06T14:05:05;15.80;99.90
13354;DHT22;6746;50.892;4.064;2023-08-06T14:07:44;15.70;99.90
13354;DHT22;6746;50.892;4.064;2023-08-06T14:10:22;15.70;99.90
13354;DHT22;6746;50.892;4.064;2023-08-06T14:12:55;15.80;99.90
13354;DHT22;6746;50.892;4.064;2023-08-06T14:15:24;15.80;99.90
13354;DHT22;6746;50.892;4.064;2023-08-06T14:17:56;15.90;99.90
13354;DHT22;6746;50.892;4.064;2023-08-06T14:20:25;16.00;99.90
13354;DHT22;6746;50.892;4.064;2023-08-06T14:22:54;16.20;99.90
13354;DHT22;6746;50.892;4.064;2023-08-06T14:25:23;16.40;99.90
13354;DHT22;6746;50.892;4.064;2023-08-06T14:28:03;16.60;99.90
13354;DHT22;6746;50.892;4.064;2023-08-06T14:30:32;16.80;99.90
13354;DHT22;6746;50.892;4.064;2023-08-06T14:33:00;16.80;99.90
13354;DHT22;6746;50.892;4.064;2023-08-06T14:35:35;16.90;99.90
13354;DHT22;6746;50.892;4.064;2023-08-06T14:38:05;17.00;99.90
13354;DHT22;6746;50.892;4.064;2023-08-06T14:40:35;17.20;99.90
13354;DHT22;6746;50.892;4.064;2023-08-06T14:43:07;17.40;99.90
13354;DHT22;6746;50.892;4.064;2023-08-06T14:45:39;17.40;99.90
13354;DHT22;6746;50.892;4.064;2023-08-06T14:48:07;17.50;99.90
13354;DHT22;6746;50.892;4.064;2023-08-06T14:50:47;17.50;99.90
13354;DHT22;6746;50.892;4.064;2023-08-06T14:53:19;17.70;99.90
13354;DHT22;6746;50.892;4.064;2023-08-06T14:55:48;17.60;99.90
13354;DHT22;6746;50.892;4.064;2023-08-06T14:58:16;17.60;99.90
13354;DHT22;6746;50.892;4.064;2023-08-06T15:00:45;17.70;99.90
13354;DHT22;6746;50.892;4.064;2023-08-06T15:03:14;17.80;99.90
13354;DHT22;6746;50.892;4.064;2023-08-06T15:05:43;17.70;99.90
13354;DHT22;6746;50.892;4.064;2023-08-06T15:08:15;17.60;99.90
13354;DHT22;6746;50.892;4.064;2023-08-06T15:10:49;17.50;99.90
13354;DHT22;6746;50.892;4.064;2023-08-06T15:13:22;17.60;99.90
13354;DHT22;6746;50.892;4.064;2023-08-06T15:16:01;17.60;99.90
13354;DHT22;6746;50.892;4.064;2023-08-06T15:18:39;17.70;99.90
13354;DHT22;6746;50.892;4.064;2023-08-06T15:21:17;17.70;99.90
13354;DHT22;6746;50.892;4.064;2023-08-06T15:23:55;17.50;99.90
13354;DHT22;6746;50.892;4.064;2023-08-06T15:26:27;17.40;99.90
13354;DHT22;6746;50.892;4.064;2023-08-06T15:28:58;17.20;99.90
13354;DHT22;6746;50.892;4.064;2023-08-06T15:31:37;17.20;99.90
13354;DHT22;6746;50.892;4.064;2023-08-06T15:34:06;17.30;99.90
13354;DHT22;6746;50.892;4.064;2023-08-06T15:36:44;17.30;99.90
13354;DHT22;6746;50.892;4.064;2023-08-06T15:39:18;17.30;99.90
13354;DHT22;6746;50.892;4.064;2023-08-06T15:41:46;17.30;99.90
13354;DHT22;6746;50.892;4.064;2023-08-06T15:44:23;17.20;99.90
13354;DHT22;6746;50.892;4.064;2023-08-06T15:46:55;17.40;99.90
13354;DHT22;6746;50.892;4.064;2023-08-06T15:49:29;17.50;99.90
13354;DHT22;6746;50.892;4.064;2023-08-06T15:52:00;17.70;99.90
13354;DHT22;6746;50.892;4.064;2023-08-06T15:54:39;17.80;99.90
13354;DHT22;6746;50.892;4.064;2023-08-06T15:57:17;17.90;99.90
13354;DHT22;6746;50.892;4.064;2023-08-06T15:59:55;17.80;99.90
13354;DHT22;6746;50.892;4.064;2023-08-06T16:02:29;17.70;99.90
13354;DHT22;6746;50.892;4.064;2023-08-06T16:04:58;17.60;99.90
13354;DHT22;6746;50.892;4.064;2023-08-06T16:07:32;17.70;99.90
13354;DHT22;6746;50.892;4.064;2023-08-06T16:10:01;17.60;99.90
13354;DHT22;6746;50.892;4.064;2023-08-06T16:12:39;17.50;99.90
13354;DHT22;6746;50.892;4.064;2023-08-06T16:15:08;17.60;99.90
13354;DHT22;6746;50.892;4.064;2023-08-06T16:17:36;17.70;99.90
13354;DHT22;6746;50.892;4.064;2023-08-06T16:20:15;17.80;99.90
13354;DHT22;6746;50.892;4.064;2023-08-06T16:22:53;17.90;99.90
13354;DHT22;6746;50.892;4.064;2023-08-06T16:25:31;18.00;99.90
13354;DHT22;6746;50.892;4.064;2023-08-06T16:28:19;18.00;99.90
13354;DHT22;6746;50.892;4.064;2023-08-06T16:30:58;18.00;99.90
13354;DHT22;6746;50.892;4.064;2023-08-06T16:33:36;18.00;99.90
13354;DHT22;6746;50.892;4.064;2023-08-06T16:36:17;17.90;99.90
13354;DHT22;6746;50.892;4.064;2023-08-06T16:38:55;17.90;99.90
13354;DHT22;6746;50.892;4.064;2023-08-06T16:41:23;17.70;99.90
13354;DHT22;6746;50.892;4.064;2023-08-06T16:43:52;17.70;99.90
13354;DHT22;6746;50.892;4.064;2023-08-06T16:46:21;17.60;99.90
13354;DHT22;6746;50.892;4.064;2023-08-06T16:48:50;17.50;99.90